Maiquinique, Brazil
Current Conditions -  °F | °C
As of 4:00 PM on Saturday 25 Oct 2014 (Local Time) from SBQV Reporting Station
Scattered Clouds Scattered Clouds  
Wind Chill: 82°   Ceiling: Unl
Heat Index: 82°   Visibility: 6mi
Dew Point: 59°   Wind: 14mph
Humidity: 45%   Direction: 100°E
Pressure: 30"   Gusts: NA
Location:  15.63°S, 40.25°W
Report Text: SBQV 251900Z 10012KT 9999 SCT025 28/15 Q1016
Loading
Personal Weather Stations






























Interactive Weather Map
Tropical Storm Tracking
New forecast layout! Learn more

10-Day Weather Forecast

Advertisements
Track Severe Weather on mobile